Time;durP1;ratioP1;P1;durP2;ratioP2;P2;SDS_P1;SDS_P2;PMS_P1;PMS_P2;Temp;Humidity;BMP_temperature;BMP_pressure;BME280_temperature;BME280_humidity;BME280_pressure;Samples;Min_cycle;Max_cycle;Signal;HPM_P1;HPM_P2
2022/10/19 00:00:49;;;;;;;31.02;12.93;;;;;;;;;;5073245;28;20040;-76
2022/10/19 00:03:15;;;;;;;29.20;13.55;;;;;;;;;;5071901;28;20085;-75
2022/10/19 00:05:40;;;;;;;27.15;13.32;;;;;;;;;;5072008;28;20020;-75
2022/10/19 00:08:06;;;;;;;31.67;12.93;;;;;;;;;;5072395;28;20543;-75
2022/10/19 00:10:31;;;;;;;29.90;13.15;;;;;;;;;;5073183;28;20174;-76
2022/10/19 00:12:56;;;;;;;26.83;12.77;;;;;;;;;;5073152;28;20533;-76
2022/10/19 00:15:22;;;;;;;26.75;13.00;;;;;;;;;;5073091;28;20390;-75
2022/10/19 00:17:47;;;;;;;26.15;13.65;;;;;;;;;;5073064;28;20473;-74
2022/10/19 00:20:12;;;;;;;30.83;12.50;;;;;;;;;;5073179;28;20020;-76
2022/10/19 00:22:37;;;;;;;27.92;12.98;;;;;;;;;;5071912;28;20017;-74
2022/10/19 00:25:03;;;;;;;29.52;12.90;;;;;;;;;;5073347;28;20017;-76
2022/10/19 00:27:31;;;;;;;31.88;13.52;;;;;;;;;;5073225;28;20405;-76
2022/10/19 00:29:56;;;;;;;31.45;13.73;;;;;;;;;;5071640;28;20470;-76
2022/10/19 00:32:22;;;;;;;26.58;13.57;;;;;;;;;;5073039;28;20074;-76
2022/10/19 00:34:47;;;;;;;33.05;13.23;;;;;;;;;;5073161;28;20021;-76
2022/10/19 00:37:12;;;;;;;27.27;12.77;;;;;;;;;;5073227;28;20028;-76
2022/10/19 00:39:38;;;;;;;37.05;13.65;;;;;;;;;;5073061;28;20028;-75
2022/10/19 00:42:03;;;;;;;35.92;14.20;;;;;;;;;;5072872;28;20028;-76
2022/10/19 00:44:28;;;;;;;32.88;13.40;;;;;;;;;;5073027;28;20016;-75
2022/10/19 00:46:58;;;;;;;29.10;13.50;;;;;;;;;;5073096;28;20073;-75
2022/10/19 00:49:27;;;;;;;29.75;12.90;;;;;;;;;;5073105;28;20245;-76
2022/10/19 00:51:56;;;;;;;35.97;13.88;;;;;;;;;;5072582;28;20021;-76
2022/10/19 00:54:23;;;;;;;30.40;13.70;;;;;;;;;;5072683;28;20165;-75
2022/10/19 00:56:50;;;;;;;31.88;13.05;;;;;;;;;;5072719;28;20511;-75
2022/10/19 00:59:19;;;;;;;27.10;13.27;;;;;;;;;;5072645;28;20090;-75
2022/10/19 01:01:45;;;;;;;32.67;13.40;;;;;;;;;;5072605;28;20031;-76
2022/10/19 01:04:12;;;;;;;28.02;13.60;;;;;;;;;;5072860;28;20381;-75
2022/10/19 01:06:38;;;;;;;33.88;13.27;;;;;;;;;;5072578;28;20478;-75
2022/10/19 01:09:04;;;;;;;28.58;13.48;;;;;;;;;;5072691;28;20037;-76
2022/10/19 01:11:50;;;;;;;31.40;13.38;;;;;;;;;;5072615;28;20037;-76
2022/10/19 01:14:37;;;;;;;28.17;12.98;;;;;;;;;;5073072;28;20374;-75
2022/10/19 01:17:34;;;;;;;26.70;12.57;;;;;;;;;;5072581;28;20408;-76
2022/10/19 01:20:14;;;;;;;23.85;12.45;;;;;;;;;;5073895;28;20440;-76
2022/10/19 01:23:04;;;;;;;27.35;11.98;;;;;;;;;;5076378;28;20082;-75
2022/10/19 01:25:57;;;;;;;24.85;11.80;;;;;;;;;;5076517;28;20074;-75
2022/10/19 01:28:54;;;;;;;24.30;11.88;;;;;;;;;;5076474;28;20032;-76
2022/10/19 01:31:43;;;;;;;26.00;11.38;;;;;;;;;;5076091;28;20028;-75
2022/10/19 01:34:21;;;;;;;27.45;12.70;;;;;;;;;;5076223;28;20386;-75
2022/10/19 01:36:58;;;;;;;30.08;12.32;;;;;;;;;;5075976;28;20029;-75
2022/10/19 01:39:40;;;;;;;28.13;12.40;;;;;;;;;;5074765;28;20122;-76
2022/10/19 01:42:15;;;;;;;29.83;12.30;;;;;;;;;;5074817;28;20382;-76
2022/10/19 01:45:04;;;;;;;27.02;12.00;;;;;;;;;;5076077;28;20111;-75
2022/10/19 01:47:34;;;;;;;30.98;11.85;;;;;;;;;;5076034;28;20115;-76
2022/10/19 01:50:15;;;;;;;23.55;11.80;;;;;;;;;;5075988;28;20032;-75
2022/10/19 01:52:41;;;;;;;26.02;11.32;;;;;;;;;;5075714;28;20028;-76
2022/10/19 01:55:09;;;;;;;29.58;11.68;;;;;;;;;;5075611;28;20021;-75
2022/10/19 01:57:45;;;;;;;29.95;12.25;;;;;;;;;;5074311;28;20028;-75
2022/10/19 02:00:14;;;;;;;29.60;12.95;;;;;;;;;;5075723;28;20028;-76
2022/10/19 02:02:47;;;;;;;32.60;12.82;;;;;;;;;;5075844;28;20431;-75
2022/10/19 02:05:15;;;;;;;31.70;13.25;;;;;;;;;;5075772;28;20020;-75
2022/10/19 02:07:45;;;;;;;29.15;12.75;;;;;;;;;;5075438;28;20021;-75
2022/10/19 02:10:10;;;;;;;28.42;11.93;;;;;;;;;;5075255;28;20025;-75
2022/10/19 02:12:36;;;;;;;31.63;12.27;;;;;;;;;;5075228;28;20021;-75
2022/10/19 02:15:08;;;;;;;37.67;12.38;;;;;;;;;;5073903;28;20029;-75
2022/10/19 02:17:39;;;;;;;27.05;11.27;;;;;;;;;;5075358;28;20020;-76
2022/10/19 02:20:05;;;;;;;24.50;11.05;;;;;;;;;;5075274;28;20575;-76
2022/10/19 02:22:30;;;;;;;26.27;11.13;;;;;;;;;;5075858;28;20116;-76
2022/10/19 02:24:55;;;;;;;24.42;10.30;;;;;;;;;;5074275;28;20012;-76
2022/10/19 02:27:20;;;;;;;23.40;10.45;;;;;;;;;;5075420;28;20412;-76
2022/10/19 02:29:46;;;;;;;24.40;11.02;;;;;;;;;;5075135;28;20028;-77
2022/10/19 02:32:12;;;;;;;21.42;11.27;;;;;;;;;;5074194;28;20028;-75
2022/10/19 02:34:38;;;;;;;25.20;11.50;;;;;;;;;;5075177;28;20073;-75
2022/10/19 02:37:04;;;;;;;26.02;11.60;;;;;;;;;;5075101;28;20028;-75
2022/10/19 02:39:30;;;;;;;27.60;11.63;;;;;;;;;;5075362;28;20032;-75
2022/10/19 02:42:16;;;;;;;25.25;11.35;;;;;;;;;;5075277;28;20151;-75
2022/10/19 02:44:55;;;;;;;26.25;10.80;;;;;;;;;;5075575;28;20028;-76
2022/10/19 02:47:28;;;;;;;25.88;11.10;;;;;;;;;;5075428;28;20017;-75
2022/10/19 02:49:54;;;;;;;21.88;10.90;;;;;;;;;;5075540;28;20020;-75
2022/10/19 02:52:19;;;;;;;28.52;10.40;;;;;;;;;;5074777;28;20079;-76
2022/10/19 02:54:45;;;;;;;25.20;10.45;;;;;;;;;;5075364;28;20059;-76
2022/10/19 02:57:19;;;;;;;24.17;10.27;;;;;;;;;;5073766;28;20052;-76
2022/10/19 02:59:45;;;;;;;22.10;10.10;;;;;;;;;;5075661;28;20021;-75
2022/10/19 03:02:11;;;;;;;22.20;9.70;;;;;;;;;;5077685;28;20031;-75
2022/10/19 03:04:36;;;;;;;24.25;10.13;;;;;;;;;;5080703;28;20028;-74
2022/10/19 03:07:01;;;;;;;21.33;9.45;;;;;;;;;;5080005;28;20029;-75
2022/10/19 03:09:26;;;;;;;21.52;9.27;;;;;;;;;;5080115;28;20393;-75
2022/10/19 03:11:54;;;;;;;26.25;10.25;;;;;;;;;;5080603;28;20039;-76
2022/10/19 03:14:19;;;;;;;20.13;9.63;;;;;;;;;;5080781;28;20081;-75
2022/10/19 03:16:44;;;;;;;20.08;9.98;;;;;;;;;;5079864;28;20028;-75
2022/10/19 03:19:10;;;;;;;22.45;9.93;;;;;;;;;;5080646;28;20025;-76
2022/10/19 03:21:35;;;;;;;19.95;9.75;;;;;;;;;;5080507;28;20031;-76
2022/10/19 03:24:00;;;;;;;21.85;9.25;;;;;;;;;;5079782;28;20043;-74
2022/10/19 03:26:26;;;;;;;22.20;8.90;;;;;;;;;;5080255;28;20027;-75
2022/10/19 03:28:51;;;;;;;19.08;8.88;;;;;;;;;;5079715;28;20025;-75
2022/10/19 03:31:17;;;;;;;23.33;9.50;;;;;;;;;;5079481;28;20058;-75
2022/10/19 03:33:43;;;;;;;21.45;10.00;;;;;;;;;;5080738;28;20027;-76
2022/10/19 03:36:12;;;;;;;21.52;9.55;;;;;;;;;;5081382;28;20027;-75
2022/10/19 03:38:38;;;;;;;28.67;9.10;;;;;;;;;;5080261;28;20103;-75
2022/10/19 03:41:06;;;;;;;27.73;9.07;;;;;;;;;;5076985;28;20065;-76
2022/10/19 03:43:32;;;;;;;19.98;9.38;;;;;;;;;;5072268;28;20127;-75
2022/10/19 03:45:57;;;;;;;19.13;8.45;;;;;;;;;;5073684;28;20101;-75
2022/10/19 03:48:22;;;;;;;21.80;9.40;;;;;;;;;;5073489;28;20476;-76
2022/10/19 03:50:47;;;;;;;21.30;8.38;;;;;;;;;;5073329;28;20033;-76
2022/10/19 03:53:13;;;;;;;20.27;8.52;;;;;;;;;;5073392;28;20032;-76
2022/10/19 03:55:39;;;;;;;18.33;8.35;;;;;;;;;;5073318;28;20033;-75
2022/10/19 03:58:04;;;;;;;19.30;9.30;;;;;;;;;;5072003;28;20444;-75
2022/10/19 04:00:29;;;;;;;18.67;9.65;;;;;;;;;;5073561;28;20032;-76
2022/10/19 04:02:54;;;;;;;19.00;8.00;;;;;;;;;;5073459;28;20031;-74
2022/10/19 04:05:20;;;;;;;18.10;8.25;;;;;;;;;;5073188;28;20078;-78
2022/10/19 04:07:45;;;;;;;19.17;8.05;;;;;;;;;;5073516;28;20107;-77
2022/10/19 04:10:10;;;;;;;16.70;8.13;;;;;;;;;;5073363;28;20020;-76
2022/10/19 04:12:35;;;;;;;23.48;8.30;;;;;;;;;;5073062;28;20077;-75
2022/10/19 04:15:01;;;;;;;18.35;8.15;;;;;;;;;;5073005;28;20498;-75
2022/10/19 04:17:26;;;;;;;16.27;8.05;;;;;;;;;;5073262;28;20371;-75
2022/10/19 04:19:51;;;;;;;16.70;7.75;;;;;;;;;;5071885;28;20027;-75
2022/10/19 04:22:16;;;;;;;14.93;8.10;;;;;;;;;;5073409;28;20107;-75
2022/10/19 04:24:42;;;;;;;17.17;8.55;;;;;;;;;;5073199;28;20024;-76
2022/10/19 04:27:07;;;;;;;18.83;8.20;;;;;;;;;;5073284;28;20040;-75
2022/10/19 04:29:32;;;;;;;17.08;8.75;;;;;;;;;;5073012;28;20028;-76
2022/10/19 04:31:58;;;;;;;16.30;7.97;;;;;;;;;;5073171;28;20037;-76
2022/10/19 04:34:23;;;;;;;16.27;7.50;;;;;;;;;;5072870;28;20025;-76
2022/10/19 04:36:49;;;;;;;18.42;8.40;;;;;;;;;;5072897;28;20438;-75
2022/10/19 04:39:14;;;;;;;14.55;7.22;;;;;;;;;;5071657;28;20031;-75
2022/10/19 04:41:39;;;;;;;14.30;7.50;;;;;;;;;;5072786;28;20052;-76
2022/10/19 04:44:07;;;;;;;20.35;8.10;;;;;;;;;;5072856;28;20025;-75
2022/10/19 04:46:33;;;;;;;18.38;7.88;;;;;;;;;;5071556;28;20048;-75
2022/10/19 04:48:59;;;;;;;20.10;7.68;;;;;;;;;;5072755;28;20063;-76
2022/10/19 04:51:25;;;;;;;14.65;7.80;;;;;;;;;;5072630;28;20041;-74
2022/10/19 04:53:51;;;;;;;20.20;7.40;;;;;;;;;;5072879;28;20024;-76
2022/10/19 04:56:21;;;;;;;19.88;7.43;;;;;;;;;;5076537;28;20496;-75
2022/10/19 04:58:47;;;;;;;19.45;7.57;;;;;;;;;;5076615;28;20491;-75
2022/10/19 05:01:15;;;;;;;16.30;7.32;;;;;;;;;;5076767;28;20039;-76
2022/10/19 05:03:41;;;;;;;18.35;7.35;;;;;;;;;;5076639;28;20036;-76
2022/10/19 05:06:08;;;;;;;15.18;7.53;;;;;;;;;;5076597;28;20422;-75
2022/10/19 05:08:33;;;;;;;20.25;7.32;;;;;;;;;;5076688;28;20028;-76
2022/10/19 05:11:01;;;;;;;22.50;7.50;;;;;;;;;;5075193;28;20028;-75
2022/10/19 05:13:26;;;;;;;18.35;7.13;;;;;;;;;;5076658;28;20035;-75
2022/10/19 05:15:56;;;;;;;17.42;7.75;;;;;;;;;;5074971;28;20024;-75
2022/10/19 05:18:21;;;;;;;16.58;6.97;;;;;;;;;;5076323;28;20029;-75
2022/10/19 05:20:46;;;;;;;14.40;7.50;;;;;;;;;;5076270;28;20016;-75
2022/10/19 05:23:11;;;;;;;17.42;7.35;;;;;;;;;;5076082;28;20021;-74
2022/10/19 05:25:37;;;;;;;12.45;7.07;;;;;;;;;;5074921;28;20074;-75
2022/10/19 05:28:05;;;;;;;14.82;6.88;;;;;;;;;;5077254;28;20027;-76
2022/10/19 05:30:31;;;;;;;16.10;6.60;;;;;;;;;;5076097;28;20028;-74
2022/10/19 05:32:56;;;;;;;17.67;7.38;;;;;;;;;;5075967;28;20025;-75
2022/10/19 05:35:21;;;;;;;15.32;7.32;;;;;;;;;;5075857;28;20035;-76
2022/10/19 05:37:47;;;;;;;17.40;6.80;;;;;;;;;;5076012;28;20108;-75
2022/10/19 05:40:12;;;;;;;17.05;6.60;;;;;;;;;;5075919;28;20474;-76
2022/10/19 05:42:37;;;;;;;19.60;7.07;;;;;;;;;;5075791;28;20020;-75
2022/10/19 05:45:03;;;;;;;17.65;7.07;;;;;;;;;;5075753;28;20056;-75
2022/10/19 05:47:28;;;;;;;15.57;7.25;;;;;;;;;;5075965;28;20039;-76
2022/10/19 05:49:53;;;;;;;21.45;7.13;;;;;;;;;;5075824;28;20016;-75
2022/10/19 05:52:19;;;;;;;18.65;7.25;;;;;;;;;;5075789;28;20112;-75
2022/10/19 05:54:44;;;;;;;22.65;7.85;;;;;;;;;;5075654;28;20136;-76
2022/10/19 05:57:09;;;;;;;17.40;7.32;;;;;;;;;;5075880;28;20020;-76
2022/10/19 05:59:35;;;;;;;19.40;7.20;;;;;;;;;;5074378;28;20455;-75
2022/10/19 06:02:00;;;;;;;18.85;6.97;;;;;;;;;;5075474;28;20035;-75
2022/10/19 06:04:25;;;;;;;13.35;6.68;;;;;;;;;;5075770;28;20021;-76
2022/10/19 06:06:50;;;;;;;12.02;6.28;;;;;;;;;;5074618;28;20355;-75
2022/10/19 06:09:16;;;;;;;14.13;6.90;;;;;;;;;;5075388;28;20031;-75
2022/10/19 06:11:42;;;;;;;17.02;7.05;;;;;;;;;;5074100;28;20479;-75
2022/10/19 06:14:11;;;;;;;15.82;6.65;;;;;;;;;;5075564;28;20033;-75
2022/10/19 06:16:36;;;;;;;16.88;6.43;;;;;;;;;;5075218;28;20102;-75
2022/10/19 06:19:03;;;;;;;16.88;6.55;;;;;;;;;;5075246;28;20028;-75
2022/10/19 06:21:30;;;;;;;18.38;6.35;;;;;;;;;;5073783;28;20033;-75
2022/10/19 06:23:58;;;;;;;16.67;6.68;;;;;;;;;;5075632;28;20036;-75
2022/10/19 06:26:23;;;;;;;13.50;6.35;;;;;;;;;;5075886;28;20020;-74
2022/10/19 06:28:50;;;;;;;17.65;6.72;;;;;;;;;;5075005;28;20031;-75
2022/10/19 06:31:15;;;;;;;15.98;6.25;;;;;;;;;;5074958;28;20035;-75
2022/10/19 06:33:42;;;;;;;12.73;6.25;;;;;;;;;;5074752;28;20111;-75
2022/10/19 06:36:09;;;;;;;18.25;6.22;;;;;;;;;;5073458;28;20375;-74
2022/10/19 06:38:34;;;;;;;16.92;6.32;;;;;;;;;;5074806;28;20074;-75
2022/10/19 06:41:00;;;;;;;11.40;5.82;;;;;;;;;;5075007;28;20024;-76
2022/10/19 06:43:25;;;;;;;10.77;5.30;;;;;;;;;;5074581;28;20032;-75
2022/10/19 06:45:51;;;;;;;12.45;5.38;;;;;;;;;;5073413;28;20017;-75
2022/10/19 06:48:16;;;;;;;11.68;4.65;;;;;;;;;;5074512;28;20477;-75
2022/10/19 06:50:41;;;;;;;10.68;5.18;;;;;;;;;;5074598;28;20508;-75
2022/10/19 06:53:07;;;;;;;8.90;4.50;;;;;;;;;;5074631;28;20071;-76
2022/10/19 06:55:32;;;;;;;13.90;4.57;;;;;;;;;;5074510;28;20032;-76
2022/10/19 06:58:00;;;;;;;9.27;5.10;;;;;;;;;;5074716;28;20017;-75
2022/10/19 07:00:28;;;;;;;19.90;5.43;;;;;;;;;;5074418;28;20055;-76
2022/10/19 07:02:54;;;;;;;13.48;4.72;;;;;;;;;;5074512;28;20028;-76
2022/10/19 07:05:20;;;;;;;12.30;4.57;;;;;;;;;;5074248;28;20389;-75
2022/10/19 07:07:45;;;;;;;14.88;4.30;;;;;;;;;;5072923;28;20146;-75
2022/10/19 07:10:11;;;;;;;12.95;3.80;;;;;;;;;;5074128;28;20541;-74
2022/10/19 07:12:36;;;;;;;9.68;4.03;;;;;;;;;;5072741;28;20078;-75
2022/10/19 07:15:02;;;;;;;9.18;3.70;;;;;;;;;;5074093;28;20025;-75
2022/10/19 07:17:27;;;;;;;12.43;3.90;;;;;;;;;;5072472;28;20478;-75
2022/10/19 07:19:53;;;;;;;10.48;3.70;;;;;;;;;;5072943;28;20062;-74
2022/10/19 07:22:19;;;;;;;11.27;4.00;;;;;;;;;;5072830;28;20385;-76
2022/10/19 07:24:44;;;;;;;10.75;4.22;;;;;;;;;;5072900;28;20052;-75
2022/10/19 07:27:09;;;;;;;6.40;3.15;;;;;;;;;;5073909;28;20025;-75
2022/10/19 07:29:35;;;;;;;8.40;3.28;;;;;;;;;;5073820;28;20040;-75
2022/10/19 07:32:01;;;;;;;9.98;3.45;;;;;;;;;;5073642;28;20025;-74
2022/10/19 07:34:26;;;;;;;10.88;3.17;;;;;;;;;;5073711;28;20478;-75
2022/10/19 07:36:52;;;;;;;8.80;3.58;;;;;;;;;;5072300;28;20031;-75
2022/10/19 07:39:20;;;;;;;12.07;3.25;;;;;;;;;;5072280;28;20024;-75
2022/10/19 07:41:46;;;;;;;7.88;3.05;;;;;;;;;;5073833;28;20035;-75
2022/10/19 07:44:14;;;;;;;8.63;3.17;;;;;;;;;;5073458;28;20112;-75
2022/10/19 07:46:40;;;;;;;6.75;3.15;;;;;;;;;;5073477;28;20024;-76
2022/10/19 07:49:08;;;;;;;10.32;3.08;;;;;;;;;;5073783;28;20028;-75
2022/10/19 07:51:35;;;;;;;7.38;3.10;;;;;;;;;;5073220;28;20033;-76
2022/10/19 07:54:00;;;;;;;11.32;3.15;;;;;;;;;;5073577;28;20108;-76
2022/10/19 07:59:53;;;;;;;7.13;2.70;;;;;;;;;;5063315;28;20031;-75
2022/10/19 08:02:19;;;;;;;6.05;2.67;;;;;;;;;;5073151;28;20024;-76
2022/10/19 08:04:44;;;;;;;6.43;2.50;;;;;;;;;;5073345;28;20044;-75
2022/10/19 08:07:09;;;;;;;10.80;2.63;;;;;;;;;;5071945;28;20023;-76
2022/10/19 08:09:35;;;;;;;7.13;2.47;;;;;;;;;;5073327;28;20043;-75
2022/10/19 08:12:00;;;;;;;5.82;2.35;;;;;;;;;;5073158;28;20024;-75
2022/10/19 08:14:25;;;;;;;6.63;2.47;;;;;;;;;;5073249;28;20023;-76
2022/10/19 08:16:51;;;;;;;5.03;1.42;;;;;;;;;;5073137;28;20545;-76
2022/10/19 08:19:16;;;;;;;6.38;2.40;;;;;;;;;;5073120;28;20036;-75
2022/10/19 08:21:43;;;;;;;10.43;2.40;;;;;;;;;;5071774;28;20119;-75
2022/10/19 08:24:09;;;;;;;7.65;2.38;;;;;;;;;;5071776;28;20024;-75
2022/10/19 08:26:37;;;;;;;7.93;2.20;;;;;;;;;;5073039;28;20024;-76
2022/10/19 08:29:05;;;;;;;4.88;2.13;;;;;;;;;;5072313;28;20020;-75
2022/10/19 08:31:31;;;;;;;7.35;2.40;;;;;;;;;;5072929;28;20036;-75
2022/10/19 08:33:57;;;;;;;9.98;2.50;;;;;;;;;;5072853;28;20389;-75
2022/10/19 08:36:23;;;;;;;5.80;2.40;;;;;;;;;;5071631;28;20441;-75
2022/10/19 08:38:49;;;;;;;7.18;1.83;;;;;;;;;;5072338;28;20031;-75
2022/10/19 08:41:17;;;;;;;11.98;2.75;;;;;;;;;;5072461;28;20465;-75
2022/10/19 08:44:20;;;;;;;7.13;2.20;;;;;;;;;;5072690;28;20530;-76
2022/10/19 08:46:57;;;;;;;6.22;2.65;;;;;;;;;;5072996;28;20033;-75
2022/10/19 08:49:25;;;;;;;4.78;2.00;;;;;;;;;;5072636;28;20020;-76
2022/10/19 08:51:58;;;;;;;7.80;2.35;;;;;;;;;;5072499;28;20036;-75
2022/10/19 08:54:27;;;;;;;6.47;2.15;;;;;;;;;;5072594;28;20508;-75
2022/10/19 08:57:12;;;;;;;4.72;2.20;;;;;;;;;;5072949;28;20028;-75
2022/10/19 08:59:45;;;;;;;9.90;2.13;;;;;;;;;;5073112;28;20392;-76
2022/10/19 09:02:32;;;;;;;5.13;2.22;;;;;;;;;;5071353;28;20126;-74
2022/10/19 09:05:03;;;;;;;5.78;2.20;;;;;;;;;;5073270;28;20031;-75
2022/10/19 09:07:33;;;;;;;6.47;1.95;;;;;;;;;;5072790;28;20056;-75
2022/10/19 09:10:15;;;;;;;8.68;1.90;;;;;;;;;;5071248;28;20032;-75
2022/10/19 09:12:49;;;;;;;9.50;1.95;;;;;;;;;;5071234;28;20021;-75
2022/10/19 09:15:20;;;;;;;9.35;1.90;;;;;;;;;;5072593;28;20112;-75
2022/10/19 09:17:46;;;;;;;5.72;1.63;;;;;;;;;;5072729;28;20032;-75
2022/10/19 09:20:21;;;;;;;5.10;1.88;;;;;;;;;;5072519;28;20024;-75
2022/10/19 09:23:16;;;;;;;8.02;1.75;;;;;;;;;;5072526;28;20036;-74
2022/10/19 09:25:41;;;;;;;4.40;1.85;;;;;;;;;;5071199;28;20023;-75
2022/10/19 09:28:40;;;;;;;3.97;1.23;;;;;;;;;;5072681;28;20032;-75
2022/10/19 09:31:09;;;;;;;3.17;1.50;;;;;;;;;;5072485;28;20062;-75
2022/10/19 09:33:38;;;;;;;6.80;1.83;;;;;;;;;;5072307;28;20021;-75
2022/10/19 09:36:05;;;;;;;3.08;1.20;;;;;;;;;;5072209;28;20044;-75
2022/10/19 09:38:31;;;;;;;10.43;1.65;;;;;;;;;;5072213;28;20485;-74
2022/10/19 09:40:57;;;;;;;3.78;1.17;;;;;;;;;;5072072;28;20032;-75
2022/10/19 09:43:24;;;;;;;3.53;1.20;;;;;;;;;;5075850;28;20031;-75
2022/10/19 09:46:09;;;;;;;3.83;1.25;;;;;;;;;;5075806;28;20110;-75
2022/10/19 09:48:45;;;;;;;5.78;1.30;;;;;;;;;;5075898;28;20031;-75
2022/10/19 09:51:13;;;;;;;6.05;1.15;;;;;;;;;;5075613;28;20107;-75
2022/10/19 09:53:53;;;;;;;8.68;1.35;;;;;;;;;;5075549;28;20031;-75
2022/10/19 09:56:20;;;;;;;7.55;1.40;;;;;;;;;;5074215;28;20370;-75
2022/10/19 09:58:51;;;;;;;10.85;1.80;;;;;;;;;;5076061;28;20111;-75
2022/10/19 10:01:41;;;;;;;9.80;1.30;;;;;;;;;;5075469;28;20064;-76
2022/10/19 10:04:16;;;;;;;6.97;1.63;;;;;;;;;;5069674;28;20039;-74
2022/10/19 10:06:45;;;;;;;8.52;1.10;;;;;;;;;;5075455;28;20031;-75
2022/10/19 10:09:26;;;;;;;2.78;1.10;;;;;;;;;;5074092;28;20032;-74
2022/10/19 10:11:53;;;;;;;5.43;1.33;;;;;;;;;;5075446;28;20035;-74
2022/10/19 10:14:31;;;;;;;4.10;1.50;;;;;;;;;;5075215;28;20057;-76
2022/10/19 10:17:01;;;;;;;2.42;1.30;;;;;;;;;;5075549;28;20024;-76
2022/10/19 10:19:29;;;;;;;3.00;1.13;;;;;;;;;;5075226;28;20040;-75
2022/10/19 10:21:56;;;;;;;6.63;0.82;;;;;;;;;;5075165;28;20032;-76
2022/10/19 10:24:32;;;;;;;4.63;1.05;;;;;;;;;;5075039;28;20025;-75
2022/10/19 10:27:01;;;;;;;3.63;1.10;;;;;;;;;;5075323;28;20036;-75
2022/10/19 10:29:34;;;;;;;2.45;0.80;;;;;;;;;;5075223;28;20054;-76
2022/10/19 10:32:01;;;;;;;3.03;1.02;;;;;;;;;;5075048;28;20478;-76
2022/10/19 10:34:34;;;;;;;5.22;1.10;;;;;;;;;;5074826;28;20029;-75
2022/10/19 10:37:01;;;;;;;2.45;0.98;;;;;;;;;;5073658;28;20046;-76
2022/10/19 10:39:28;;;;;;;4.50;1.10;;;;;;;;;;5074803;28;20032;-76
2022/10/19 10:41:55;;;;;;;6.35;1.23;;;;;;;;;;5074913;28;20109;-76
2022/10/19 10:44:25;;;;;;;4.72;1.15;;;;;;;;;;5074646;28;20020;-75
2022/10/19 10:46:55;;;;;;;2.35;0.80;;;;;;;;;;5074667;28;20110;-77
2022/10/19 10:49:25;;;;;;;2.35;0.88;;;;;;;;;;5074632;28;20033;-75
2022/10/19 10:51:54;;;;;;;2.53;0.88;;;;;;;;;;5072658;28;20116;-77
2022/10/19 10:54:21;;;;;;;1.60;0.80;;;;;;;;;;5074113;28;20028;-76
2022/10/19 10:57:11;;;;;;;1.33;0.90;;;;;;;;;;5074743;28;20075;-75
2022/10/19 11:00:07;;;;;;;4.03;0.93;;;;;;;;;;5073262;28;20107;-75
2022/10/19 11:02:53;;;;;;;1.10;0.70;;;;;;;;;;5074318;28;20048;-75
2022/10/19 11:05:27;;;;;;;2.25;0.73;;;;;;;;;;5074604;28;20115;-76
2022/10/19 11:08:03;;;;;;;2.30;0.70;;;;;;;;;;5074296;28;20401;-75
2022/10/19 11:10:33;;;;;;;5.60;0.80;;;;;;;;;;5074482;28;20029;-76
2022/10/19 11:13:13;;;;;;;1.88;0.77;;;;;;;;;;5074234;28;20495;-76
2022/10/19 11:15:51;;;;;;;2.25;0.80;;;;;;;;;;5074052;28;20059;-76
2022/10/19 11:18:41;;;;;;;3.50;0.80;;;;;;;;;;5074122;28;20105;-74
2022/10/19 11:21:12;;;;;;;2.17;0.80;;;;;;;;;;5073685;28;20519;-75
2022/10/19 11:23:56;;;;;;;2.33;0.80;;;;;;;;;;5074200;28;20044;-76
2022/10/19 11:26:36;;;;;;;;;;;;;;;;;;5074292;28;20024;-75
2022/10/19 11:29:16;;;;;;;1.55;0.80;;;;;;;;;;5072508;28;20011;-75
2022/10/19 11:31:47;;;;;;;2.10;0.60;;;;;;;;;;5072316;28;20023;-75
2022/10/19 11:34:35;;;;;;;3.22;0.60;;;;;;;;;;5073625;28;20024;-75
2022/10/19 11:37:23;;;;;;;5.38;0.60;;;;;;;;;;5072346;28;20052;-74
2022/10/19 11:40:22;;;;;;;1.05;0.43;;;;;;;;;;5073647;28;20505;-74
2022/10/19 11:43:17;;;;;;;1.92;0.45;;;;;;;;;;5052196;28;20142;-75
2022/10/19 11:45:45;;;;;;;1.50;0.60;;;;;;;;;;5073459;28;20020;-74
2022/10/19 11:48:49;;;;;;;2.53;0.50;;;;;;;;;;5071984;28;20024;-74
2022/10/19 11:51:18;;;;;;;0.30;0.30;;;;;;;;;;5071964;28;20394;-76
2022/10/19 11:53:51;;;;;;;3.75;0.50;;;;;;;;;;5073344;28;20040;-75
2022/10/19 11:56:57;;;;;;;1.30;0.47;;;;;;;;;;5073872;28;20029;-75
2022/10/19 11:59:58;;;;;;;1.17;0.45;;;;;;;;;;5073423;28;20409;-75
2022/10/19 12:02:45;;;;;;;2.88;0.45;;;;;;;;;;5057220;28;20039;-75
2022/10/19 12:05:36;;;;;;;0.75;0.40;;;;;;;;;;5073728;28;20059;-76
2022/10/19 12:08:30;;;;;;;1.50;0.32;;;;;;;;;;5073408;28;20020;-75
2022/10/19 12:11:15;;;;;;;2.22;0.50;;;;;;;;;;5073546;28;20020;-75
2022/10/19 12:13:46;;;;;;;1.35;0.32;;;;;;;;;;5071671;28;20036;-74
2022/10/19 12:16:13;;;;;;;0.73;0.30;;;;;;;;;;5073061;28;20033;-75
2022/10/19 12:18:50;;;;;;;1.90;0.40;;;;;;;;;;5073131;28;20082;-76
2022/10/19 12:21:28;;;;;;;3.25;0.57;;;;;;;;;;5071687;28;20032;-75
2022/10/19 12:23:56;;;;;;;2.50;0.50;;;;;;;;;;5072923;28;20028;-76
2022/10/19 12:26:23;;;;;;;1.08;0.28;;;;;;;;;;5072928;28;20021;-75
2022/10/19 12:28:55;;;;;;;1.55;0.47;;;;;;;;;;5073015;28;20020;-76
2022/10/19 12:31:23;;;;;;;2.72;0.38;;;;;;;;;;5072965;28;20078;-75
2022/10/19 12:34:19;;;;;;;3.72;0.63;;;;;;;;;;5071658;28;20074;-75
2022/10/19 12:37:09;;;;;;;0.82;0.45;;;;;;;;;;5072939;28;20050;-76
2022/10/19 12:39:48;;;;;;;4.75;0.55;;;;;;;;;;5072917;28;20496;-75
2022/10/19 12:42:44;;;;;;;4.30;0.50;;;;;;;;;;5073187;28;20370;-75
2022/10/19 12:45:48;;;;;;;1.20;0.40;;;;;;;;;;5072936;28;20051;-75
2022/10/19 12:48:19;;;;;;;2.08;0.30;;;;;;;;;;5070995;28;20037;-75
2022/10/19 12:50:47;;;;;;;1.13;0.30;;;;;;;;;;5072872;28;20109;-75
2022/10/19 12:53:23;;;;;;;1.02;0.40;;;;;;;;;;5072575;28;20477;-75
2022/10/19 12:55:59;;;;;;;1.55;0.40;;;;;;;;;;5073167;28;20075;-75
2022/10/19 12:58:26;;;;;;;1.35;0.43;;;;;;;;;;5072959;28;20029;-76
2022/10/19 13:00:59;;;;;;;1.20;0.50;;;;;;;;;;5072719;28;20029;-75
2022/10/19 13:03:31;;;;;;;1.13;0.35;;;;;;;;;;5072497;28;20028;-75
2022/10/19 13:05:59;;;;;;;0.60;0.20;;;;;;;;;;5072956;28;20512;-75
2022/10/19 13:08:29;;;;;;;0.93;0.47;;;;;;;;;;5072590;28;20033;-75
2022/10/19 13:11:16;;;;;;;0.50;0.30;;;;;;;;;;5073073;28;20082;-74
2022/10/19 13:14:06;;;;;;;2.53;0.20;;;;;;;;;;5072552;28;20054;-75
2022/10/19 13:16:39;;;;;;;1.15;0.40;;;;;;;;;;5074734;28;20024;-76
2022/10/19 13:19:13;;;;;;;4.35;0.50;;;;;;;;;;5076345;28;20048;-75
2022/10/19 13:21:57;;;;;;;1.58;0.38;;;;;;;;;;5076220;28;20489;-75
2022/10/19 13:24:22;;;;;;;1.75;0.40;;;;;;;;;;5076195;28;20097;-75
2022/10/19 13:27:07;;;;;;;2.50;0.30;;;;;;;;;;5075988;28;20477;-75
2022/10/19 13:29:35;;;;;;;0.93;0.40;;;;;;;;;;5074551;28;20304;-74
2022/10/19 13:32:29;;;;;;;2.67;0.45;;;;;;;;;;5074613;28;20082;-75
2022/10/19 13:35:11;;;;;;;2.85;0.80;;;;;;;;;;5075968;28;20025;-75
2022/10/19 13:37:36;;;;;;;5.20;0.57;;;;;;;;;;5075907;28;20078;-75
2022/10/19 13:40:17;;;;;;;1.63;0.50;;;;;;;;;;5075895;28;20416;-74
2022/10/19 13:42:43;;;;;;;2.88;0.60;;;;;;;;;;5074436;28;20512;-75
2022/10/19 13:45:21;;;;;;;1.67;0.40;;;;;;;;;;5075942;28;20103;-74
2022/10/19 13:47:55;;;;;;;2.40;0.50;;;;;;;;;;5076134;28;20036;-75
2022/10/19 13:50:40;;;;;;;1.73;0.45;;;;;;;;;;5076174;28;20025;-74
2022/10/19 13:53:11;;;;;;;2.95;0.68;;;;;;;;;;5075861;28;20442;-75
2022/10/19 13:56:04;;;;;;;1.33;0.50;;;;;;;;;;5075524;28;20028;-75
2022/10/19 13:58:47;;;;;;;1.20;0.50;;;;;;;;;;5075779;28;20025;-75
2022/10/19 14:01:33;;;;;;;3.78;0.60;;;;;;;;;;5074319;28;20085;-75
2022/10/19 14:04:16;;;;;;;1.52;0.50;;;;;;;;;;5075710;28;20083;-75
2022/10/19 14:06:51;;;;;;;1.35;0.43;;;;;;;;;;5074269;28;20032;-75
2022/10/19 14:09:43;;;;;;;1.38;0.50;;;;;;;;;;5075333;28;20107;-75
2022/10/19 14:12:21;;;;;;;1.30;0.55;;;;;;;;;;5073960;28;20028;-75
2022/10/19 14:14:46;;;;;;;1.45;0.60;;;;;;;;;;5073910;28;20036;-75
2022/10/19 14:17:18;;;;;;;1.27;0.40;;;;;;;;;;5075773;28;20029;-75
2022/10/19 14:19:51;;;;;;;1.00;0.68;;;;;;;;;;5075262;28;20028;-75
2022/10/19 14:22:20;;;;;;;0.88;0.40;;;;;;;;;;5075141;28;20439;-75
2022/10/19 14:24:46;;;;;;;2.65;0.68;;;;;;;;;;5073855;28;20020;-75
2022/10/19 14:27:17;;;;;;;2.38;0.70;;;;;;;;;;5074208;28;20031;-75
2022/10/19 14:29:46;;;;;;;1.02;0.57;;;;;;;;;;5075304;28;20025;-76
2022/10/19 14:32:12;;;;;;;3.83;0.65;;;;;;;;;;5074741;28;20033;-75
2022/10/19 14:34:41;;;;;;;1.45;0.60;;;;;;;;;;5073626;28;20030;-75
2022/10/19 14:37:15;;;;;;;1.17;0.70;;;;;;;;;;5074980;28;20039;-75
2022/10/19 14:39:41;;;;;;;;;;;;;;;;;;5074756;28;20120;-75
2022/10/19 14:42:09;;;;;;;2.40;0.70;;;;;;;;;;5075084;28;19943;-75
2022/10/19 14:44:37;;;;;;;1.52;0.60;;;;;;;;;;5073411;28;20249;-75
2022/10/19 14:47:16;;;;;;;2.80;0.75;;;;;;;;;;5074984;28;20078;-75
2022/10/19 14:49:41;;;;;;;1.75;0.60;;;;;;;;;;5074905;28;20029;-75
2022/10/19 14:52:08;;;;;;;3.03;0.60;;;;;;;;;;5074396;28;20032;-75
2022/10/19 14:54:42;;;;;;;2.92;0.57;;;;;;;;;;5074400;28;20024;-75
2022/10/19 14:57:14;;;;;;;2.17;0.60;;;;;;;;;;5073203;28;20024;-75
2022/10/19 14:59:46;;;;;;;1.70;0.60;;;;;;;;;;5074837;28;20016;-75